Latest Weather Observations for Beerburrum

IDQ60901

Issued at 9:55 pm EST Thursday 17 April 2014 (issued every 10 minutes, with the page automatically refreshed every 10 minutes)

About weather observations | Map of Brisbane area stations | Latest observations for Brisbane area | Other Formats
Station Details ID: 040284 Name: BEERBURRUM FOREST STATION Lat: -26.96 Lon: 152.96 Height: 48.0 m
Data from the previous 72 hours. | See also: Recent months at Beerburrum
Date/Time
EST
Tmp

°C
App
Tmp
°C
Dew
Point
°C
Rel
Hum
%
Delta-T

°C
Wind Press
QNH
hPa
Press
MSL
hPa
Rain
since
9 am
mm
Dir
 
Spd
km/h
Gust
km/h
Spd
kts
Gust
kts
17/09:30pm 16.4 18.0 14.8 90 0.9 CALM 0 0 0 0 - - 0.0
17/09:00pm 16.8 18.5 15.2 90 0.9 CALM 0 0 0 0 - - 0.0
17/08:30pm 17.0 18.7 15.2 89 1.0 CALM 0 0 0 0 - - 0.0
17/08:00pm 17.3 19.0 15.1 87 1.3 CALM 0 0 0 0 - - 0.0
17/07:30pm 18.2 20.1 15.8 86 1.4 CALM 0 0 0 0 - - 0.0
17/07:00pm 18.8 20.8 15.9 83 1.7 CALM 0 0 0 0 - - 0.0
17/06:30pm 19.1 21.1 16.0 82 1.8 CALM 0 0 0 0 - - 0.0
17/06:00pm 19.9 21.8 15.7 77 2.5 CALM 0 0 0 0 - - 0.0
17/05:30pm 20.8 22.0 16.0 74 2.9 NE 4 9 2 5 - - 0.0
17/05:00pm 22.1 22.5 15.2 65 4.1 N 7 9 4 5 - - 0.0
17/04:30pm 23.5 23.8 15.0 59 5.1 NNE 7 13 4 7 - - 0.0
17/04:00pm 23.5 23.8 15.0 59 5.1 N 7 11 4 6 - - 0.0
17/03:30pm 24.4 25.6 15.9 59 5.2 NE 4 7 2 4 - - 0.0
17/03:00pm 24.6 26.4 15.5 57 5.5 CALM 0 0 0 0 - - 0.0
17/02:30pm 25.1 25.6 15.1 53 6.0 ESE 6 11 3 6 - - 0.0
17/02:00pm 25.5 25.9 15.2 53 6.2 SE 7 15 4 8 - - 0.0
17/01:30pm 25.3 24.9 14.1 50 6.6 SE 9 15 5 8 - - 0.0
17/01:00pm 27.1 27.6 14.1 44 7.8 SSW 4 9 2 5 - - 0.0
17/12:30pm 26.8 26.5 13.2 43 8.0 WNW 7 11 4 6 - - 0.0
17/12:00pm 26.8 27.1 14.9 48 7.2 NW 7 11 4 6 - - 0.0
17/11:30am 25.7 26.0 15.1 52 6.4 W 7 15 4 8 - - 0.0
17/11:00am 25.6 25.3 14.4 50 6.7 W 9 15 5 8 - - 0.0
17/10:30am 25.3 25.2 13.8 49 6.8 W 7 11 4 6 - - 0.0
17/10:00am 23.8 24.0 14.2 55 5.7 SSW 6 11 3 6 - - 0.0
17/09:30am 23.5 24.3 14.8 58 5.2 WSW 4 7 2 4 - - 0.0
17/09:00am 22.4 23.1 14.5 61 4.7 S 4 7 2 4 - - 0.0
17/08:30am 21.2 22.1 13.9 63 4.2 S 2 7 1 4 - - 0.0
17/08:00am 19.9 22.0 16.2 79 2.2 CALM 0 0 0 0 - - 0.0
17/07:30am 18.0 20.2 16.5 91 0.9 CALM 0 0 0 0 - - 0.0
17/07:00am 15.6 17.0 14.5 93 0.6 CALM 0 0 0 0 - - 0.0
17/06:30am 14.9 16.1 13.8 93 0.6 CALM 0 0 0 0 - - 0.0
17/06:00am 15.2 16.5 14.1 93 0.6 CALM 0 0 0 0 - - 0.0
17/05:30am 15.4 16.8 14.4 94 0.6 CALM 0 0 0 0 - - 0.0
17/05:00am 15.1 16.4 14.1 94 0.6 CALM 0 0 0 0 - - 0.0
17/04:30am 14.2 15.2 13.1 93 0.6 CALM 0 0 0 0 - - 0.0
17/04:00am 14.1 15.0 13.0 93 0.6 CALM 0 0 0 0 - - 0.0
17/03:30am 14.3 15.2 13.0 92 0.7 CALM 0 0 0 0 - - 0.0
17/03:00am 14.7 15.8 13.6 93 0.6 CALM 0 0 0 0 - - 0.0
17/02:30am 14.9 16.1 13.8 93 0.6 CALM 0 0 0 0 - - 0.0
17/02:00am 15.0 16.2 13.9 93 0.6 CALM 0 0 0 0 - - 0.0
17/01:30am 15.0 16.2 13.7 92 0.7 CALM 0 0 0 0 - - 0.0
17/01:00am 15.2 16.4 13.9 92 0.7 CALM 0 0 0 0 - - 0.0
17/12:30am 15.3 16.6 14.2 93 0.6 CALM 0 0 0 0 - - 0.0
17/12:00am 15.5 16.9 14.4 93 0.6 CALM 0 0 0 0 - - 0.0
 
Date/Time
EST
Tmp

°C
App
Tmp
°C
Dew
Point
°C
Rel
Hum
%
Delta-T

°C
Wind Press
QNH
hPa
Press
MSL
hPa
Rain
since
9 am
mm
Dir
 
Spd
km/h
Gust
km/h
Spd
kts
Gust
kts
16/11:30pm 15.4 16.7 14.1 92 0.7 CALM 0 0 0 0 - - 0.0
16/11:00pm 15.5 16.8 14.0 91 0.8 CALM 0 0 0 0 - - 0.0
16/10:30pm 15.7 17.0 14.2 91 0.9 CALM 0 0 0 0 - - 0.0
16/10:00pm 16.0 17.4 14.5 91 0.9 CALM 0 0 0 0 - - 0.0
16/09:30pm 16.3 17.8 14.7 90 0.9 CALM 0 0 0 0 - - 0.0
16/09:00pm 16.5 18.1 14.9 90 0.9 CALM 0 0 0 0 - - 0.0
16/08:30pm 16.9 18.6 15.1 89 1.0 CALM 0 0 0 0 - - 0.0
16/08:00pm 17.3 19.0 15.3 88 1.2 CALM 0 0 0 0 - - 0.0
16/07:30pm 17.7 19.4 15.1 85 1.5 CALM 0 0 0 0 - - 0.0
16/07:00pm 18.3 20.1 15.6 84 1.6 CALM 0 0 0 0 - - 0.0
16/06:30pm 18.8 20.7 15.7 82 1.8 CALM 0 0 0 0 - - 0.0
16/06:00pm 19.4 21.3 15.7 79 2.2 CALM 0 0 0 0 - - 0.0
16/05:30pm 20.4 22.2 15.6 74 2.9 CALM 0 0 0 0 - - 0.0
16/05:00pm 21.8 23.6 15.4 67 3.8 CALM 0 0 0 0 - - 0.0
16/04:30pm 24.2 24.5 14.9 56 5.6 E 7 11 4 6 - - 0.0
16/04:00pm 25.3 25.4 14.4 50 6.5 E 7 9 4 5 - - 0.0
16/03:30pm 25.9 26.5 15.3 52 6.4 ESE 6 13 3 7 - - 0.0
16/03:00pm 25.7 25.5 13.5 46 7.2 ESE 7 11 4 6 - - 0.0
16/02:30pm 26.0 26.0 14.1 47 7.1 ESE 7 13 4 7 - - 0.0
16/02:00pm 25.4 25.3 13.9 49 6.8 S 7 15 4 8 - - 0.0
16/01:30pm 24.9 24.7 13.1 48 6.9 S 6 13 3 7 - - 0.0
16/01:00pm 26.4 25.8 13.5 45 7.6 S 9 17 5 9 - - 0.0
16/12:30pm 25.8 25.4 13.0 45 7.5 ESE 7 13 4 7 - - 0.0
16/12:00pm 25.6 25.0 13.5 47 7.1 S 9 13 5 7 - - 0.0
16/11:30am 25.2 24.5 12.1 44 7.5 SSW 7 13 4 7 - - 0.0
16/11:00am 24.4 23.8 11.7 45 7.2 SSE 6 13 3 7 - - 0.0
16/10:30am 23.7 23.3 12.4 49 6.5 S 6 11 3 6 - - 0.0
16/10:00am 23.6 23.0 11.6 47 6.8 SW 6 15 3 8 - - 0.0
16/09:30am 23.1 23.5 13.8 55 5.4 WSW 4 7 2 4 - - 0.0
16/09:00am 22.1 22.0 13.2 57 5.1 WSW 6 9 3 5 - - 0.0
16/08:30am 20.4 20.5 13.8 66 3.8 WSW 6 9 3 5 - - 0.0
16/08:00am 19.1 20.0 15.2 78 2.3 SW 4 7 2 4 - - 0.0
16/07:30am 17.5 18.4 16.0 91 0.9 WSW 6 7 3 4 - - 0.0
16/07:00am 14.7 15.8 13.6 93 0.6 CALM 0 0 0 0 - - 0.0
16/06:30am 13.8 14.6 12.5 92 0.7 CALM 0 0 0 0 - - 0.0
16/06:00am 13.8 14.6 12.7 93 0.6 CALM 0 0 0 0 - - 0.0
16/05:30am 13.7 14.5 12.4 92 0.7 CALM 0 0 0 0 - - 0.0
16/05:00am 14.0 14.8 12.7 92 0.7 CALM 0 0 0 0 - - 0.0
16/04:30am 14.0 14.8 12.7 92 0.7 CALM 0 0 0 0 - - 0.0
16/04:00am 14.4 15.4 13.1 92 0.7 CALM 0 0 0 0 - - 0.0
16/03:30am 14.5 15.5 13.2 92 0.7 CALM 0 0 0 0 - - 0.0
16/03:00am 14.4 14.6 13.1 92 0.7 SW 4 7 2 4 - - 0.0
16/02:30am 14.5 15.4 13.0 91 0.8 CALM 0 0 0 0 - - 0.0
16/02:00am 14.6 15.6 13.1 91 0.8 CALM 0 0 0 0 - - 0.0
16/01:30am 14.9 15.9 13.3 90 0.9 CALM 0 0 0 0 - - 0.0
16/01:00am 15.2 16.3 13.4 89 1.0 CALM 0 0 0 0 - - 0.0
16/12:30am 15.6 16.7 13.6 88 1.1 CALM 0 0 0 0 - - 0.0
16/12:00am 16.2 16.4 14.2 88 1.1 WSW 6 6 3 3 - - 0.0
 
Date/Time
EST
Tmp

°C
App
Tmp
°C
Dew
Point
°C
Rel
Hum
%
Delta-T

°C
Wind Press
QNH
hPa
Press
MSL
hPa
Rain
since
9 am
mm
Dir
 
Spd
km/h
Gust
km/h
Spd
kts
Gust
kts
15/11:30pm 16.2 16.8 14.2 88 1.1 SW 4 7 2 4 - - 0.0
15/11:00pm 16.0 16.2 14.2 89 1.0 SW 6 9 3 5 - - 0.0
15/10:30pm 16.1 16.1 14.3 89 1.0 SW 7 9 4 5 - - 0.0
15/10:00pm 16.4 16.8 14.8 90 0.9 SW 6 7 3 4 - - 0.0
15/09:30pm 16.5 17.2 14.5 88 1.1 SW 4 7 2 4 - - 0.0
15/09:00pm 16.9 17.7 14.9 88 1.2 SSW 4 6 2 3 - - 0.0
15/08:30pm 17.0 18.7 15.2 89 1.0 CALM 0 6 0 3 - - 0.0
15/08:00pm 17.6 18.6 15.4 87 1.3 SSW 4 7 2 4 - - 0.0
15/07:30pm 17.8 19.3 15.6 87 1.3 SW 2 6 1 3 - - 0.0
15/07:00pm 18.2 20.0 15.5 84 1.6 CALM 0 6 0 3 - - 0.0
15/06:30pm 18.7 20.2 15.8 83 1.7 S 2 7 1 4 - - 0.0
15/06:00pm 19.5 21.1 16.0 80 2.1 SSW 2 9 1 5 - - 0.0
15/05:30pm 20.2 22.2 16.0 77 2.5 CALM 0 0 0 0 - - 0.0
15/05:00pm 21.5 23.1 16.0 71 3.3 S 2 7 1 4 - - 0.0
15/04:30pm 22.5 22.6 15.4 64 4.2 SE 9 17 5 9 - - 0.0
15/04:00pm 23.3 24.1 15.9 63 4.5 SSE 6 11 3 6 - - 0.0
15/03:30pm 22.3 21.9 15.2 64 4.2 S 11 19 6 10 - - 0.0
15/03:00pm 23.4 24.1 16.0 63 4.5 SSE 7 17 4 9 - - 0.0
15/02:30pm 23.7 22.8 14.9 57 5.2 SSE 13 28 7 15 - - 0.0
15/02:00pm 23.7 23.2 14.9 57 5.2 SSE 11 19 6 10 - - 0.0
15/01:30pm 24.2 24.0 15.7 59 5.1 S 11 19 6 10 - - 0.0
15/01:00pm 23.4 22.8 14.7 58 5.2 S 11 19 6 10 - - 0.0
15/12:30pm 23.4 22.9 14.9 59 5.1 SSE 11 20 6 11 - - 0.0
15/12:00pm 23.7 22.9 15.2 59 5.1 S 13 28 7 15 - - 0.0
15/11:30am 24.1 23.5 15.6 59 5.1 SSW 13 24 7 13 - - 0.0
15/11:00am 23.6 23.1 14.9 58 5.2 S 11 20 6 11 - - 0.0
15/10:30am 23.5 23.1 15.3 60 4.9 S 11 22 6 12 - - 0.0
15/10:00am 23.2 22.9 15.5 62 4.6 S 11 28 6 15 - - 0.0
15/09:30am 23.1 22.5 14.7 59 5.0 S 11 19 6 10 - - 0.0
15/09:00am 22.7 22.1 14.5 60 4.8 S 11 24 6 13 - - 34.0
15/08:30am 22.3 22.1 14.7 62 4.5 SSW 9 22 5 12 - - 34.0
15/08:00am 21.7 22.2 15.5 68 3.7 SSW 7 15 4 8 - - 34.0
15/07:30am 20.3 20.9 15.7 75 2.7 SW 7 9 4 5 - - 34.0
15/07:00am 17.8 18.4 15.4 86 1.4 SW 6 7 3 4 - - 34.0
15/06:30am 17.5 18.3 14.8 84 1.6 SW 4 7 2 4 - - 34.0
15/06:00am 18.1 18.4 14.6 80 2.0 SW 6 7 3 4 - - 34.0
15/05:30am 19.1 19.7 15.2 78 2.3 SSW 6 13 3 7 - - 34.0
15/05:00am 19.1 19.7 15.4 79 2.2 SW 6 11 3 6 - - 34.0
15/04:30am 19.1 19.6 15.6 80 2.1 SW 7 13 4 7 - - 34.0
15/04:00am 19.2 19.7 15.5 79 2.2 SSW 7 15 4 8 - - 34.0
15/03:30am 19.4 19.9 15.5 78 2.3 SSW 7 13 4 7 - - 34.0
15/03:00am 19.2 20.0 15.9 81 2.0 SW 6 9 3 5 - - 34.0
15/02:30am 19.1 19.8 16.0 82 1.8 SSW 7 15 4 8 - - 34.0
15/02:00am 18.7 19.4 16.1 85 1.5 SW 7 9 4 5 - - 34.0
15/01:30am 17.9 18.4 15.5 86 1.4 SW 7 7 4 4 - - 34.0
15/01:00am 17.8 18.2 15.4 86 1.4 SW 7 9 4 5 - - 34.0
15/12:30am 18.2 18.9 15.6 85 1.5 SW 6 7 3 4 - - 34.0
15/12:00am 18.2 18.8 15.8 86 1.4 SW 7 9 4 5 - - 34.0
 
Date/Time
EST
Tmp

°C
App
Tmp
°C
Dew
Point
°C
Rel
Hum
%
Delta-T

°C
Wind Press
QNH
hPa
Press
MSL
hPa
Rain
since
9 am
mm
Dir
 
Spd
km/h
Gust
km/h
Spd
kts
Gust
kts
14/11:30pm 18.7 19.5 15.8 83 1.7 SSW 6 9 3 5 - - 34.0
14/11:00pm 19.0 19.7 16.0 83 1.8 SW 7 17 4 9 - - 34.0
14/10:30pm 19.3 19.6 16.0 81 2.0 SSW 9 15 5 8 - - 34.0
14/10:00pm 19.3 20.0 16.2 82 1.9 SSW 7 11 4 6 - - 34.0

Latest Capital City Observations: Canberra | Sydney | Melbourne | Brisbane | Adelaide | Perth | Hobart | Darwin

Other Formats:

Comma delimited format used in spreadsheet applications
http://www.bom.gov.au/fwo/IDQ60901/IDQ60901.95566.axf

JavaScript Object Notation format (JSON) in row-major order
http://www.bom.gov.au/fwo/IDQ60901/IDQ60901.95566.json